Time;durP1;ratioP1;P1;durP2;ratioP2;P2;SDS_P1;SDS_P2;PMS_P1;PMS_P2;Temp;Humidity;BMP_temperature;BMP_pressure;BME280_temperature;BME280_humidity;BME280_pressure;Samples;Min_cycle;Max_cycle;Signal;HPM_P1;HPM_P2
2022/06/24 00:01:41;;;;;;;26.90;5.55;;;;;;;;;;5026981;28;20490;-43
2022/06/24 00:04:07;;;;;;;15.65;4.65;;;;;;;;;;5026635;28;20029;-42
2022/06/24 00:06:46;;;;;;;21.00;4.75;;;;;;;;;;5023019;28;20034;-43
2022/06/24 00:09:14;;;;;;;19.30;4.57;;;;;;;;;;5025790;28;20369;-45
2022/06/24 00:11:40;;;;;;;23.65;4.93;;;;;;;;;;5028676;28;20026;-43
2022/06/24 00:14:08;;;;;;;21.17;5.10;;;;;;;;;;5023773;28;20037;-43
2022/06/24 00:17:00;;;;;;;25.15;5.38;;;;;;;;;;5022710;28;20034;-43
2022/06/24 00:19:29;;;;;;;23.40;4.90;;;;;;;;;;5028015;28;20091;-43
2022/06/24 00:22:03;;;;;;;19.77;4.32;;;;;;;;;;5022152;28;20766;-43
2022/06/24 00:24:30;;;;;;;19.77;4.55;;;;;;;;;;5023774;28;20067;-43
2022/06/24 00:26:56;;;;;;;21.58;5.40;;;;;;;;;;5023672;28;20399;-43
2022/06/24 00:29:26;;;;;;;21.90;4.50;;;;;;;;;;5022371;28;20033;-45
2022/06/24 00:32:08;;;;;;;12.88;4.07;;;;;;;;;;5028581;28;20041;-43
2022/06/24 00:34:36;;;;;;;22.38;4.68;;;;;;;;;;5020893;28;20399;-45
2022/06/24 00:37:23;;;;;;;12.65;3.85;;;;;;;;;;5029619;28;20598;-43
2022/06/24 00:39:50;;;;;;;19.80;4.40;;;;;;;;;;5022339;28;20044;-43
2022/06/24 00:42:18;;;;;;;20.38;4.57;;;;;;;;;;5026187;28;20080;-46
2022/06/24 00:44:53;;;;;;;16.73;4.05;;;;;;;;;;5031489;28;20979;-42
2022/06/24 00:47:22;;;;;;;17.58;5.05;;;;;;;;;;5026363;28;20496;-43
2022/06/24 00:49:48;;;;;;;17.30;4.75;;;;;;;;;;5030839;28;20037;-44
2022/06/24 00:52:15;;;;;;;16.50;4.32;;;;;;;;;;5021413;28;20033;-43
2022/06/24 00:54:43;;;;;;;18.63;4.85;;;;;;;;;;5023423;28;20055;-43
2022/06/24 00:57:09;;;;;;;17.15;4.47;;;;;;;;;;5025570;28;20116;-43
2022/06/24 00:59:36;;;;;;;18.33;4.50;;;;;;;;;;5032109;28;20371;-43
2022/06/24 01:02:06;;;;;;;18.30;4.53;;;;;;;;;;5025300;28;20662;-42
2022/06/24 01:04:33;;;;;;;19.77;4.05;;;;;;;;;;5026325;28;20190;-43
2022/06/24 01:06:59;;;;;;;16.67;5.50;;;;;;;;;;5029167;28;20024;-43
2022/06/24 01:09:25;;;;;;;19.90;4.95;;;;;;;;;;5020178;28;20033;-43
2022/06/24 01:11:51;;;;;;;20.02;4.10;;;;;;;;;;5031982;28;20249;-43
2022/06/24 01:14:17;;;;;;;17.65;5.25;;;;;;;;;;5018243;28;20025;-46
2022/06/24 01:16:43;;;;;;;24.17;5.07;;;;;;;;;;5030367;28;20029;-43
2022/06/24 01:19:11;;;;;;;18.52;4.72;;;;;;;;;;5026133;28;20068;-43
2022/06/24 01:21:42;;;;;;;18.20;4.57;;;;;;;;;;5026085;28;20558;-43
2022/06/24 01:24:12;;;;;;;21.42;5.47;;;;;;;;;;5030007;28;20074;-43
2022/06/24 01:26:40;;;;;;;16.15;4.43;;;;;;;;;;5021736;28;20044;-43
2022/06/24 01:29:06;;;;;;;21.30;5.13;;;;;;;;;;5030474;28;20394;-43
2022/06/24 01:31:33;;;;;;;19.38;4.82;;;;;;;;;;5032422;28;20064;-43
2022/06/24 01:33:59;;;;;;;17.75;4.80;;;;;;;;;;5032159;28;20391;-43
2022/06/24 01:36:24;;;;;;;19.08;4.88;;;;;;;;;;5032521;28;20032;-43
2022/06/24 01:38:50;;;;;;;24.65;4.95;;;;;;;;;;5020222;28;20060;-43
2022/06/24 01:41:17;;;;;;;17.67;4.85;;;;;;;;;;5028567;28;20036;-43
2022/06/24 01:43:43;;;;;;;23.98;5.30;;;;;;;;;;5031850;28;20370;-44
2022/06/24 01:46:11;;;;;;;17.42;5.20;;;;;;;;;;5030904;28;20048;-43
2022/06/24 01:48:38;;;;;;;27.85;5.43;;;;;;;;;;5030102;28;20033;-43
2022/06/24 01:51:05;;;;;;;15.60;4.20;;;;;;;;;;5026337;28;20414;-43
2022/06/24 01:53:31;;;;;;;14.93;4.47;;;;;;;;;;5031941;28;20041;-44
2022/06/24 01:55:56;;;;;;;25.55;5.47;;;;;;;;;;5030665;28;20040;-42
2022/06/24 01:58:22;;;;;;;13.65;4.47;;;;;;;;;;5025965;28;20128;-43
2022/06/24 02:00:48;;;;;;;23.30;5.20;;;;;;;;;;5033893;28;20516;-44
2022/06/24 02:03:13;;;;;;;21.13;4.95;;;;;;;;;;5026138;28;20032;-43
2022/06/24 02:05:40;;;;;;;17.13;4.25;;;;;;;;;;5033959;28;20024;-43
2022/06/24 02:08:06;;;;;;;24.02;4.93;;;;;;;;;;5026221;28;20037;-43
2022/06/24 02:13:28;;;;;;;17.73;4.70;;;;;;;;;;5030695;28;20061;-43
2022/06/24 02:16:13;;;;;;;16.67;4.50;;;;;;;;;;5032045;28;20021;-43
2022/06/24 02:18:39;;;;;;;22.42;5.40;;;;;;;;;;5029957;28;20171;-43
2022/06/24 02:21:05;;;;;;;20.05;4.65;;;;;;;;;;5028742;28;20033;-43
2022/06/24 02:23:31;;;;;;;15.35;4.43;;;;;;;;;;5020455;28;20021;-43
2022/06/24 02:25:57;;;;;;;13.02;3.75;;;;;;;;;;5032500;28;20395;-42
2022/06/24 02:28:23;;;;;;;19.50;4.65;;;;;;;;;;5031179;28;20123;-46
2022/06/24 02:30:52;;;;;;;13.23;3.63;;;;;;;;;;5033685;28;20037;-44
2022/06/24 02:33:19;;;;;;;13.77;3.90;;;;;;;;;;5032285;28;20037;-43
2022/06/24 02:35:44;;;;;;;18.77;4.15;;;;;;;;;;5035698;28;20040;-43
2022/06/24 02:38:10;;;;;;;14.85;4.43;;;;;;;;;;5027615;28;20033;-46
2022/06/24 02:40:45;;;;;;;16.50;4.35;;;;;;;;;;5027107;28;20045;-45
2022/06/24 02:43:16;;;;;;;14.25;3.55;;;;;;;;;;5027126;28;20037;-43
2022/06/24 02:46:06;;;;;;;10.90;3.45;;;;;;;;;;5035277;28;20441;-42
2022/06/24 02:48:33;;;;;;;12.77;3.88;;;;;;;;;;5022573;28;20045;-43
2022/06/24 02:51:00;;;;;;;13.32;4.00;;;;;;;;;;5028291;28;20037;-43
2022/06/24 02:53:28;;;;;;;15.05;3.70;;;;;;;;;;5034158;28;20032;-42
2022/06/24 02:55:56;;;;;;;9.95;3.42;;;;;;;;;;5029530;28;20137;-42
2022/06/24 02:58:23;;;;;;;13.13;3.50;;;;;;;;;;5023552;28;20045;-43
2022/06/24 03:00:49;;;;;;;13.73;3.53;;;;;;;;;;5030281;28;20086;-43
2022/06/24 03:03:18;;;;;;;9.52;3.63;;;;;;;;;;5026250;28;20441;-43
2022/06/24 03:05:44;;;;;;;14.05;3.60;;;;;;;;;;5031685;28;22694;-42
2022/06/24 03:08:11;;;;;;;9.02;3.15;;;;;;;;;;5027424;28;20128;-43
2022/06/24 03:10:38;;;;;;;15.43;3.53;;;;;;;;;;5024580;28;20099;-43
2022/06/24 03:13:04;;;;;;;13.10;4.07;;;;;;;;;;5030241;28;20033;-42
2022/06/24 03:15:30;;;;;;;10.88;3.42;;;;;;;;;;5023011;28;20120;-43
2022/06/24 03:17:57;;;;;;;12.88;4.00;;;;;;;;;;5028383;28;20029;-43
2022/06/24 03:20:23;;;;;;;12.05;3.80;;;;;;;;;;5034666;28;20032;-43
2022/06/24 03:22:49;;;;;;;12.88;3.40;;;;;;;;;;5024334;28;20063;-42
2022/06/24 03:25:15;;;;;;;11.75;3.70;;;;;;;;;;5029775;28;20060;-42
2022/06/24 03:27:40;;;;;;;15.77;3.67;;;;;;;;;;5023076;28;20057;-45
2022/06/24 03:30:10;;;;;;;13.93;4.40;;;;;;;;;;5028631;28;20477;-44
2022/06/24 03:32:36;;;;;;;22.08;4.45;;;;;;;;;;5026235;28;20483;-43
2022/06/24 03:35:02;;;;;;;14.90;4.22;;;;;;;;;;5027736;28;20057;-43
2022/06/24 03:37:29;;;;;;;21.40;4.70;;;;;;;;;;5027156;28;20116;-43
2022/06/24 03:39:58;;;;;;;17.00;3.72;;;;;;;;;;5026130;28;20040;-42
2022/06/24 03:42:24;;;;;;;11.18;3.75;;;;;;;;;;5030134;28;20021;-42
2022/06/24 03:44:49;;;;;;;22.60;4.70;;;;;;;;;;5028721;28;20025;-43
2022/06/24 03:47:16;;;;;;;12.85;4.10;;;;;;;;;;5026105;28;20381;-43
2022/06/24 03:49:42;;;;;;;14.40;4.35;;;;;;;;;;5027884;28;20021;-43
2022/06/24 03:52:08;;;;;;;23.48;4.00;;;;;;;;;;5022905;28;20064;-42
2022/06/24 03:54:34;;;;;;;14.65;3.50;;;;;;;;;;5029870;28;20072;-43
2022/06/24 03:57:00;;;;;;;16.73;3.65;;;;;;;;;;5025641;28;20478;-43
2022/06/24 03:59:25;;;;;;;14.65;4.60;;;;;;;;;;5032512;28;20082;-42
2022/06/24 04:01:51;;;;;;;13.18;3.90;;;;;;;;;;5027668;28;20038;-42
2022/06/24 04:04:17;;;;;;;18.95;4.20;;;;;;;;;;5026873;28;20072;-43
2022/06/24 04:06:43;;;;;;;11.65;4.35;;;;;;;;;;5023646;28;20038;-42
2022/06/24 04:09:08;;;;;;;17.55;4.63;;;;;;;;;;5022669;28;20037;-44
2022/06/24 04:11:34;;;;;;;18.25;4.32;;;;;;;;;;5027232;28;20471;-44
2022/06/24 04:14:07;;;;;;;20.25;4.75;;;;;;;;;;5034034;28;20039;-43
2022/06/24 04:16:33;;;;;;;16.60;4.05;;;;;;;;;;5018622;28;20014;-43
2022/06/24 04:18:58;;;;;;;15.48;4.47;;;;;;;;;;5028329;28;20372;-43
2022/06/24 04:21:24;;;;;;;16.98;4.30;;;;;;;;;;5027461;28;20060;-43
2022/06/24 04:23:51;;;;;;;16.95;4.25;;;;;;;;;;5027259;28;20486;-42
2022/06/24 04:26:18;;;;;;;16.40;4.20;;;;;;;;;;5028336;28;20032;-42
2022/06/24 04:28:45;;;;;;;17.77;4.28;;;;;;;;;;5023961;28;20068;-43
2022/06/24 04:31:12;;;;;;;16.90;5.03;;;;;;;;;;5020867;28;20026;-43
2022/06/24 04:33:38;;;;;;;19.40;4.63;;;;;;;;;;5026032;28;20032;-43
2022/06/24 04:36:14;;;;;;;14.93;4.25;;;;;;;;;;5025046;28;20021;-42
2022/06/24 04:38:41;;;;;;;18.08;4.57;;;;;;;;;;5023134;28;20155;-43
2022/06/24 04:41:11;;;;;;;21.80;4.70;;;;;;;;;;5028761;28;20542;-43
2022/06/24 04:43:37;;;;;;;19.00;4.68;;;;;;;;;;5027382;28;20029;-43
2022/06/24 04:46:03;;;;;;;16.67;4.85;;;;;;;;;;5028590;28;20150;-43
2022/06/24 04:48:29;;;;;;;20.35;4.57;;;;;;;;;;5027038;28;20033;-42
2022/06/24 04:50:54;;;;;;;17.88;5.10;;;;;;;;;;5026173;28;20033;-44
2022/06/24 04:53:20;;;;;;;21.08;4.97;;;;;;;;;;5027875;28;20060;-43
2022/06/24 04:55:46;;;;;;;20.65;4.70;;;;;;;;;;5029022;28;20588;-43
2022/06/24 04:58:12;;;;;;;14.20;4.13;;;;;;;;;;5015766;28;20026;-44
2022/06/24 05:00:38;;;;;;;20.48;5.53;;;;;;;;;;5027566;28;20119;-43
2022/06/24 05:03:04;;;;;;;16.48;4.75;;;;;;;;;;5033152;28;20160;-43
2022/06/24 05:05:29;;;;;;;20.02;4.30;;;;;;;;;;5030903;28;20053;-44
2022/06/24 05:07:55;;;;;;;18.17;4.70;;;;;;;;;;5029240;28;20091;-43
2022/06/24 05:10:21;;;;;;;17.77;4.47;;;;;;;;;;5025948;28;20045;-43
2022/06/24 05:12:46;;;;;;;17.27;5.43;;;;;;;;;;5031201;28;20048;-43
2022/06/24 05:15:12;;;;;;;20.70;5.10;;;;;;;;;;5030106;28;20390;-43
2022/06/24 05:17:38;;;;;;;20.02;4.63;;;;;;;;;;5032890;28;20029;-44
2022/06/24 05:20:04;;;;;;;20.52;4.82;;;;;;;;;;5032386;28;20154;-45
2022/06/24 05:22:29;;;;;;;18.77;4.88;;;;;;;;;;5024856;28;20034;-42
2022/06/24 05:24:55;;;;;;;24.42;5.45;;;;;;;;;;5032690;28;20037;-42
2022/06/24 05:27:21;;;;;;;21.35;5.10;;;;;;;;;;5032171;28;20045;-43
2022/06/24 05:29:47;;;;;;;20.17;4.93;;;;;;;;;;5030833;28;20034;-44
2022/06/24 05:32:12;;;;;;;15.80;5.22;;;;;;;;;;5030451;28;20033;-44
2022/06/24 05:34:38;;;;;;;24.40;4.93;;;;;;;;;;5033321;28;20033;-43
2022/06/24 05:37:04;;;;;;;17.70;5.20;;;;;;;;;;5025980;28;20040;-44
2022/06/24 05:39:29;;;;;;;19.50;6.03;;;;;;;;;;5035573;28;20032;-42
2022/06/24 05:41:55;;;;;;;18.25;4.90;;;;;;;;;;5030944;28;20734;-43
2022/06/24 05:44:21;;;;;;;20.73;5.30;;;;;;;;;;5035350;28;20465;-43
2022/06/24 05:46:46;;;;;;;23.25;4.95;;;;;;;;;;5022574;28;20041;-45
2022/06/24 05:49:12;;;;;;;19.52;4.68;;;;;;;;;;5027752;28;20496;-45
2022/06/24 05:51:38;;;;;;;19.65;4.97;;;;;;;;;;5023067;28;20034;-43
2022/06/24 05:56:48;;;;;;;22.98;5.05;;;;;;;;;;5031455;28;20057;-42
2022/06/24 05:59:14;;;;;;;19.25;4.45;;;;;;;;;;5033380;28;20064;-43
2022/06/24 06:01:39;;;;;;;19.45;4.32;;;;;;;;;;5024560;28;20041;-43
2022/06/24 06:04:05;;;;;;;22.45;5.05;;;;;;;;;;5036931;28;20040;-44
2022/06/24 06:06:31;;;;;;;17.00;4.55;;;;;;;;;;5027840;28;20413;-42
2022/06/24 06:08:59;;;;;;;10.82;3.95;;;;;;;;;;5028926;28;20037;-43
2022/06/24 06:11:25;;;;;;;25.00;5.43;;;;;;;;;;5027289;28;20390;-43
2022/06/24 06:13:54;;;;;;;21.63;5.05;;;;;;;;;;5028532;28;20089;-48
2022/06/24 06:16:21;;;;;;;14.82;4.63;;;;;;;;;;5022724;28;20025;-42
2022/06/24 06:18:49;;;;;;;17.75;6.63;;;;;;;;;;5024680;28;20432;-44
2022/06/24 06:21:15;;;;;;;23.30;5.10;;;;;;;;;;5022055;28;20132;-44
2022/06/24 06:23:41;;;;;;;23.83;4.82;;;;;;;;;;5016887;28;20029;-43
2022/06/24 06:26:09;;;;;;;15.07;4.57;;;;;;;;;;5014360;28;20039;-45
2022/06/24 06:28:35;;;;;;;20.00;5.03;;;;;;;;;;5024177;28;20739;-46
2022/06/24 06:31:01;;;;;;;18.40;5.07;;;;;;;;;;5016532;28;20125;-43
2022/06/24 06:33:27;;;;;;;15.82;4.72;;;;;;;;;;5022357;28;20053;-44
2022/06/24 06:36:11;;;;;;;21.23;5.20;;;;;;;;;;5019279;28;20545;-43
2022/06/24 06:38:37;;;;;;;16.17;4.47;;;;;;;;;;5011195;28;20033;-46
2022/06/24 06:41:03;;;;;;;17.42;4.30;;;;;;;;;;5017120;28;20030;-43
2022/06/24 06:43:29;;;;;;;18.33;5.85;;;;;;;;;;5022072;28;20037;-43
2022/06/24 06:45:55;;;;;;;27.42;4.95;;;;;;;;;;5023581;28;20044;-43
2022/06/24 06:48:22;;;;;;;22.33;5.60;;;;;;;;;;5016461;28;20025;-46
2022/06/24 06:50:53;;;;;;;22.13;5.25;;;;;;;;;;5024037;28;20026;-45
2022/06/24 06:53:19;;;;;;;21.93;6.03;;;;;;;;;;5026482;28;20053;-43
2022/06/24 06:55:44;;;;;;;28.88;6.15;;;;;;;;;;5020045;28;20811;-43
2022/06/24 06:58:10;;;;;;;34.42;6.35;;;;;;;;;;5019296;28;20054;-45
2022/06/24 07:00:36;;;;;;;33.53;6.60;;;;;;;;;;5025657;28;20075;-43
2022/06/24 07:03:01;;;;;;;37.13;8.13;;;;;;;;;;5021882;28;20481;-43
2022/06/24 07:05:27;;;;;;;31.48;7.13;;;;;;;;;;5031633;28;20028;-43
2022/06/24 07:07:53;;;;;;;31.52;7.22;;;;;;;;;;5027540;28;20025;-43
2022/06/24 07:10:18;;;;;;;25.17;6.10;;;;;;;;;;5025448;28;20029;-46
2022/06/24 07:12:44;;;;;;;23.00;5.88;;;;;;;;;;5031163;28;20116;-44
2022/06/24 07:15:16;;;;;;;22.63;6.47;;;;;;;;;;5025923;28;20031;-45
2022/06/24 07:17:42;;;;;;;;;;;;;;;;;;5022896;28;20030;-44
2022/06/24 07:20:08;;;;;;;30.42;6.13;;;;;;;;;;5031369;28;19918;-44
2022/06/24 07:22:33;;;;;;;31.33;6.57;;;;;;;;;;5029079;28;20116;-45
2022/06/24 07:24:59;;;;;;;30.48;6.13;;;;;;;;;;5026698;28;20124;-45
2022/06/24 07:27:24;;;;;;;26.15;6.65;;;;;;;;;;5032563;28;20022;-43
2022/06/24 07:29:50;;;;;;;20.85;5.32;;;;;;;;;;5030068;28;20041;-44
2022/06/24 07:32:16;;;;;;;33.20;6.07;;;;;;;;;;5029366;28;20062;-44
2022/06/24 07:34:42;;;;;;;37.38;7.57;;;;;;;;;;5027779;28;20031;-44
2022/06/24 07:37:08;;;;;;;24.00;5.80;;;;;;;;;;5026986;28;20041;-44
2022/06/24 07:39:33;;;;;;;29.15;5.82;;;;;;;;;;5029579;28;20050;-43
2022/06/24 07:41:59;;;;;;;34.70;5.93;;;;;;;;;;5032077;28;20048;-42
2022/06/24 07:44:25;;;;;;;21.00;5.28;;;;;;;;;;5031898;28;20036;-44
2022/06/24 07:46:51;;;;;;;31.10;6.22;;;;;;;;;;5026076;28;20035;-43
2022/06/24 07:49:17;;;;;;;19.13;5.10;;;;;;;;;;5024347;28;20034;-43
2022/06/24 07:51:43;;;;;;;23.35;5.53;;;;;;;;;;5029628;28;20043;-43
2022/06/24 07:54:09;;;;;;;25.98;6.65;;;;;;;;;;5029393;28;20079;-43
2022/06/24 07:59:20;;;;;;;27.23;5.60;;;;;;;;;;5033171;28;20030;-43
2022/06/24 08:01:46;;;;;;;27.70;5.97;;;;;;;;;;5023808;28;20017;-43
2022/06/24 08:04:12;;;;;;;27.20;5.78;;;;;;;;;;5019180;28;20044;-43
2022/06/24 08:06:40;;;;;;;24.20;5.80;;;;;;;;;;5023740;28;20076;-45
2022/06/24 08:09:07;;;;;;;27.48;5.85;;;;;;;;;;5025877;28;20037;-43
2022/06/24 08:11:33;;;;;;;24.27;6.38;;;;;;;;;;5032975;28;20041;-43
2022/06/24 08:13:59;;;;;;;30.50;6.00;;;;;;;;;;5031510;28;20379;-44
2022/06/24 08:16:24;;;;;;;22.30;5.20;;;;;;;;;;5025530;28;20108;-44
2022/06/24 08:18:50;;;;;;;29.00;6.57;;;;;;;;;;5026472;28;20091;-46
2022/06/24 08:21:16;;;;;;;29.33;6.22;;;;;;;;;;5026836;28;20034;-44
2022/06/24 08:23:42;;;;;;;25.45;6.70;;;;;;;;;;5028298;28;20038;-44
2022/06/24 08:26:07;;;;;;;23.90;6.38;;;;;;;;;;5024072;28;20022;-44
2022/06/24 08:28:33;;;;;;;23.00;6.65;;;;;;;;;;5018035;28;20042;-43
2022/06/24 08:30:59;;;;;;;23.38;5.70;;;;;;;;;;5013684;28;20136;-44
2022/06/24 08:33:25;;;;;;;24.35;6.05;;;;;;;;;;5022908;28;20036;-44
2022/06/24 08:35:51;;;;;;;21.50;6.50;;;;;;;;;;5036405;28;20083;-46
2022/06/24 08:38:17;;;;;;;22.15;5.80;;;;;;;;;;5029511;28;20025;-43
2022/06/24 08:40:48;;;;;;;23.98;6.32;;;;;;;;;;5033439;28;20546;-43
2022/06/24 08:43:15;;;;;;;30.17;6.72;;;;;;;;;;5032570;28;20752;-43
2022/06/24 08:45:41;;;;;;;26.88;6.30;;;;;;;;;;5031898;28;20061;-45
2022/06/24 08:48:08;;;;;;;24.95;6.00;;;;;;;;;;5028745;28;20037;-44
2022/06/24 08:50:34;;;;;;;22.30;5.80;;;;;;;;;;5033521;28;20033;-43
2022/06/24 08:53:04;;;;;;;25.70;7.00;;;;;;;;;;5030878;28;20124;-44
2022/06/24 08:55:34;;;;;;;21.67;5.68;;;;;;;;;;5034250;28;20045;-44
2022/06/24 08:58:07;;;;;;;24.52;5.65;;;;;;;;;;5028011;28;20087;-45
2022/06/24 09:00:33;;;;;;;22.33;5.20;;;;;;;;;;5055600;28;20459;-44
2022/06/24 09:02:59;;;;;;;21.55;5.93;;;;;;;;;;5031466;28;20769;-44
2022/06/24 09:05:28;;;;;;;24.73;6.90;;;;;;;;;;5035449;28;20025;-46
2022/06/24 09:08:05;;;;;;;15.90;6.45;;;;;;;;;;5028551;28;20028;-44
2022/06/24 09:10:31;;;;;;;16.00;5.82;;;;;;;;;;5023611;28;20025;-44
2022/06/24 09:12:57;;;;;;;19.00;5.30;;;;;;;;;;5021790;28;20153;-44
2022/06/24 09:15:23;;;;;;;18.35;6.20;;;;;;;;;;5033510;28;20029;-45
2022/06/24 09:17:49;;;;;;;15.25;5.13;;;;;;;;;;5029894;28;20034;-43
2022/06/24 09:20:17;;;;;;;14.73;4.97;;;;;;;;;;5035208;28;20515;-43
2022/06/24 09:22:43;;;;;;;17.55;4.05;;;;;;;;;;5029789;28;20026;-43
2022/06/24 09:25:10;;;;;;;13.82;4.22;;;;;;;;;;5028942;28;20055;-43
2022/06/24 09:27:45;;;;;;;12.75;3.58;;;;;;;;;;5029579;28;20104;-49
2022/06/24 09:30:12;;;;;;;10.80;3.80;;;;;;;;;;5028888;28;20505;-45
2022/06/24 09:32:55;;;;;;;10.20;3.47;;;;;;;;;;5017304;28;20042;-44
2022/06/24 09:35:24;;;;;;;14.45;3.60;;;;;;;;;;5026816;28;20054;-41
2022/06/24 09:37:51;;;;;;;8.68;3.70;;;;;;;;;;5026868;28;20029;-43
2022/06/24 09:40:19;;;;;;;15.02;3.80;;;;;;;;;;5034230;28;20048;-43
2022/06/24 09:42:53;;;;;;;14.73;4.13;;;;;;;;;;5030508;28;20390;-44
2022/06/24 09:45:20;;;;;;;15.02;4.15;;;;;;;;;;5028942;28;20378;-44
2022/06/24 09:47:50;;;;;;;11.63;3.90;;;;;;;;;;5030302;28;20042;-44
2022/06/24 09:50:21;;;;;;;14.90;3.80;;;;;;;;;;5034944;28;20119;-44
2022/06/24 09:52:48;;;;;;;18.95;4.80;;;;;;;;;;5010812;28;20544;-44
2022/06/24 09:55:15;;;;;;;17.70;4.63;;;;;;;;;;5016237;28;20049;-45
2022/06/24 09:57:41;;;;;;;14.38;5.40;;;;;;;;;;5026195;28;20502;-44
2022/06/24 10:02:56;;;;;;;14.38;4.07;;;;;;;;;;5020838;28;20025;-43
2022/06/24 10:05:26;;;;;;;10.45;3.47;;;;;;;;;;5022631;28;20756;-41
2022/06/24 10:07:53;;;;;;;9.52;3.83;;;;;;;;;;5022905;28;20041;-43
2022/06/24 10:10:19;;;;;;;11.73;3.28;;;;;;;;;;5018139;28;20125;-46
2022/06/24 10:12:54;;;;;;;9.15;3.30;;;;;;;;;;5027407;28;20124;-49
2022/06/24 10:15:21;;;;;;;10.98;3.08;;;;;;;;;;5027083;28;20549;-46
2022/06/24 10:17:48;;;;;;;9.07;2.97;;;;;;;;;;5028727;28;20121;-43
2022/06/24 10:20:15;;;;;;;3.38;1.70;;;;;;;;;;5031652;28;20032;-43
2022/06/24 10:22:41;;;;;;;14.95;1.13;;;;;;;;;;5033995;28;20425;-43
2022/06/24 10:25:07;;;;;;;2.85;0.60;;;;;;;;;;5021202;28;20075;-42
2022/06/24 10:27:59;;;;;;;0.63;0.40;;;;;;;;;;5030007;28;20113;-43
2022/06/24 10:30:39;;;;;;;1.13;0.40;;;;;;;;;;5030702;28;20051;-43
2022/06/24 10:33:12;;;;;;;0.20;0.20;;;;;;;;;;5034695;28;20053;-45
2022/06/24 10:36:02;;;;;;;2.00;0.50;;;;;;;;;;5027205;28;20520;-44
2022/06/24 10:38:37;;;;;;;4.28;0.60;;;;;;;;;;5029861;28;20086;-44
2022/06/24 10:41:04;;;;;;;1.95;0.28;;;;;;;;;;5030779;28;20047;-46
2022/06/24 10:43:34;;;;;;;1.17;0.38;;;;;;;;;;5018766;28;20043;-47
2022/06/24 10:46:12;;;;;;;1.98;0.73;;;;;;;;;;5016276;28;20052;-45
2022/06/24 10:48:43;;;;;;;4.70;0.40;;;;;;;;;;5025715;28;20025;-45
2022/06/24 10:51:22;;;;;;;2.90;0.75;;;;;;;;;;5017242;28;20061;-44
2022/06/24 10:54:03;;;;;;;1.90;0.60;;;;;;;;;;5027664;28;20044;-41
2022/06/24 10:56:42;;;;;;;0.90;0.55;;;;;;;;;;5025717;28;20042;-43
2022/06/24 10:59:08;;;;;;;1.27;0.50;;;;;;;;;;5032323;28;20115;-43
2022/06/24 11:01:39;;;;;;;0.50;0.50;;;;;;;;;;5032969;28;20466;-43
2022/06/24 11:04:08;;;;;;;0.40;0.40;;;;;;;;;;5027976;28;20036;-42
2022/06/24 11:06:33;;;;;;;0.75;0.52;;;;;;;;;;5028900;28;20418;-44
2022/06/24 11:09:08;;;;;;;1.65;0.57;;;;;;;;;;5029131;28;20095;-44
2022/06/24 11:11:34;;;;;;;0.60;0.38;;;;;;;;;;5029533;28;20060;-44
2022/06/24 11:14:20;;;;;;;1.88;0.32;;;;;;;;;;5033536;28;20878;-42
2022/06/24 11:16:46;;;;;;;0.57;0.40;;;;;;;;;;5030427;28;20071;-43
2022/06/24 11:19:12;;;;;;;0.40;0.40;;;;;;;;;;5031488;28;20436;-43
2022/06/24 11:21:51;;;;;;;0.70;0.20;;;;;;;;;;5022381;28;20425;-43
2022/06/24 11:24:19;;;;;;;1.10;0.40;;;;;;;;;;5033245;28;20033;-43
2022/06/24 11:27:03;;;;;;;2.78;0.20;;;;;;;;;;5026753;28;20028;-43
2022/06/24 11:29:57;;;;;;;0.50;0.38;;;;;;;;;;5022882;28;20076;-43
2022/06/24 11:32:24;;;;;;;1.75;0.40;;;;;;;;;;5032763;28;20037;-43
2022/06/24 11:34:49;;;;;;;0.57;0.45;;;;;;;;;;5029900;28;20538;-43
2022/06/24 11:37:23;;;;;;;2.22;0.73;;;;;;;;;;5024556;28;20033;-42
2022/06/24 11:39:56;;;;;;;0.15;0.13;;;;;;;;;;5027311;28;20037;-43
2022/06/24 11:42:22;;;;;;;0.40;0.30;;;;;;;;;;5021317;28;20887;-43
2022/06/24 11:44:51;;;;;;;1.95;0.60;;;;;;;;;;5024465;28;20117;-43
2022/06/24 11:47:30;;;;;;;1.08;0.40;;;;;;;;;;5014983;28;20481;-43
2022/06/24 11:49:55;;;;;;;0.20;0.20;;;;;;;;;;5026583;28;20046;-43
2022/06/24 11:52:21;;;;;;;0.10;0.10;;;;;;;;;;5020730;28;20087;-43
2022/06/24 11:54:47;;;;;;;0.20;0.20;;;;;;;;;;5021150;28;20124;-43
2022/06/24 11:57:13;;;;;;;0.10;0.10;;;;;;;;;;5028399;28;20025;-42
2022/06/24 11:59:39;;;;;;;1.75;0.20;;;;;;;;;;5027396;28;20030;-43
2022/06/24 12:02:11;;;;;;;0.50;0.20;;;;;;;;;;5028502;28;20029;-43
2022/06/24 12:04:37;;;;;;;0.85;0.25;;;;;;;;;;5028709;28;20033;-43
2022/06/24 12:07:07;;;;;;;0.30;0.20;;;;;;;;;;5029836;28;20029;-45
2022/06/24 12:09:37;;;;;;;1.48;0.13;;;;;;;;;;5025605;28;20029;-43
2022/06/24 12:12:10;;;;;;;0.10;0.10;;;;;;;;;;5026452;28;20033;-43
2022/06/24 12:14:37;;;;;;;0.32;0.30;;;;;;;;;;5016844;28;20064;-44
2022/06/24 12:17:08;;;;;;;1.05;0.20;;;;;;;;;;5017504;28;20037;-44
2022/06/24 12:19:55;;;;;;;0.20;0.20;;;;;;;;;;5022653;28;20044;-43
2022/06/24 12:22:21;;;;;;;3.38;0.52;;;;;;;;;;5028622;28;20021;-42
2022/06/24 12:25:00;;;;;;;0.63;0.40;;;;;;;;;;5021785;28;20103;-45
2022/06/24 12:27:37;;;;;;;0.30;0.30;;;;;;;;;;5027217;28;20432;-44
2022/06/24 12:30:04;;;;;;;0.40;0.30;;;;;;;;;;5025264;28;20056;-42
2022/06/24 12:32:51;;;;;;;0.22;0.20;;;;;;;;;;5029774;28;20037;-42
2022/06/24 12:35:43;;;;;;;0.75;0.40;;;;;;;;;;5032092;28;20041;-43
2022/06/24 12:38:13;;;;;;;0.30;0.30;;;;;;;;;;5030131;28;20037;-43
2022/06/24 12:40:39;;;;;;;1.17;0.28;;;;;;;;;;5021762;28;20026;-44
2022/06/24 12:43:11;;;;;;;1.08;0.55;;;;;;;;;;5029006;28;20100;-44
2022/06/24 12:45:39;;;;;;;1.00;0.40;;;;;;;;;;5014550;28;20124;-42
2022/06/24 12:51:06;;;;;;;3.13;0.82;;;;;;;;;;5018255;28;20062;-43
2022/06/24 12:53:32;;;;;;;1.08;0.70;;;;;;;;;;5024306;28;20041;-42
2022/06/24 12:55:59;;;;;;;0.40;0.40;;;;;;;;;;5025866;28;20044;-43
2022/06/24 12:58:24;;;;;;;0.65;0.60;;;;;;;;;;5028584;28;20207;-41
2022/06/24 13:00:50;;;;;;;2.85;0.50;;;;;;;;;;5022869;28;20104;-42
2022/06/24 13:03:18;;;;;;;2.42;1.05;;;;;;;;;;5027969;28;20049;-42
2022/06/24 13:05:44;;;;;;;1.27;0.77;;;;;;;;;;5019005;28;20072;-42
2022/06/24 13:08:10;;;;;;;0.65;0.52;;;;;;;;;;5028407;28;20221;-42
2022/06/24 13:10:36;;;;;;;0.65;0.65;;;;;;;;;;5025559;28;20029;-43
2022/06/24 13:13:04;;;;;;;0.95;0.63;;;;;;;;;;5022652;28;20037;-42
2022/06/24 13:15:30;;;;;;;3.90;0.90;;;;;;;;;;5024666;28;20065;-42
2022/06/24 13:17:56;;;;;;;0.88;0.88;;;;;;;;;;5025405;28;20470;-42
2022/06/24 13:20:23;;;;;;;1.55;0.73;;;;;;;;;;5025669;28;20034;-41
2022/06/24 13:22:49;;;;;;;2.22;1.08;;;;;;;;;;5029915;28;20028;-44
2022/06/24 13:25:14;;;;;;;1.10;1.00;;;;;;;;;;5022585;28;20045;-44
2022/06/24 13:27:41;;;;;;;3.05;0.68;;;;;;;;;;5030875;28;20068;-42
2022/06/24 13:30:09;;;;;;;2.33;0.88;;;;;;;;;;5026936;28;20037;-42
2022/06/24 13:32:35;;;;;;;2.15;0.75;;;;;;;;;;5022130;28;20041;-42
2022/06/24 13:35:01;;;;;;;1.75;0.88;;;;;;;;;;5028030;28;20030;-42
2022/06/24 13:37:28;;;;;;;0.95;0.73;;;;;;;;;;5026306;28;20034;-42
2022/06/24 13:39:54;;;;;;;1.52;0.88;;;;;;;;;;5029635;28;20770;-42
2022/06/24 13:42:20;;;;;;;1.05;0.60;;;;;;;;;;5032082;28;20034;-42
2022/06/24 13:44:46;;;;;;;2.45;0.77;;;;;;;;;;5065085;28;20928;-42
2022/06/24 13:47:11;;;;;;;1.98;0.57;;;;;;;;;;5033869;28;20045;-43
2022/06/24 13:49:37;;;;;;;2.88;0.60;;;;;;;;;;5022344;28;20029;-43
2022/06/24 13:52:03;;;;;;;0.60;0.55;;;;;;;;;;5018550;28;20059;-45
2022/06/24 13:54:29;;;;;;;1.73;0.43;;;;;;;;;;5025099;28;20038;-45
2022/06/24 13:56:55;;;;;;;2.92;0.52;;;;;;;;;;5024390;28;20035;-42
2022/06/24 13:59:20;;;;;;;1.17;0.60;;;;;;;;;;5031037;28;20469;-41
2022/06/24 14:01:47;;;;;;;0.52;0.50;;;;;;;;;;5027488;28;20060;-44
2022/06/24 14:04:12;;;;;;;0.70;0.60;;;;;;;;;;5034421;28;20033;-42
2022/06/24 14:06:38;;;;;;;0.20;0.20;;;;;;;;;;5016937;28;20413;-43
2022/06/24 14:09:04;;;;;;;4.13;0.40;;;;;;;;;;5028668;28;20109;-42
2022/06/24 14:11:31;;;;;;;0.60;0.30;;;;;;;;;;5027736;28;20501;-42
2022/06/24 14:13:57;;;;;;;0.65;0.60;;;;;;;;;;5029560;28;20033;-42
2022/06/24 14:16:22;;;;;;;0.55;0.38;;;;;;;;;;5025997;28;20079;-42
2022/06/24 14:18:48;;;;;;;0.73;0.40;;;;;;;;;;5018579;28;20034;-42
2022/06/24 14:21:14;;;;;;;2.92;0.30;;;;;;;;;;5017171;28;20039;-43
2022/06/24 14:26:24;;;;;;;0.40;0.40;;;;;;;;;;5030890;28;22384;-42
2022/06/24 14:28:51;;;;;;;0.50;0.50;;;;;;;;;;5017316;28;20037;-42
2022/06/24 14:31:20;;;;;;;0.45;0.45;;;;;;;;;;5022551;28;20091;-43
2022/06/24 14:33:46;;;;;;;2.28;0.40;;;;;;;;;;5022967;28;20693;-43
2022/06/24 14:36:15;;;;;;;0.45;0.45;;;;;;;;;;5032148;28;20075;-42
2022/06/24 14:41:26;;;;;;;0.60;0.30;;;;;;;;;;5023922;28;20053;-48
2022/06/24 14:43:52;;;;;;;1.30;0.50;;;;;;;;;;5035687;28;20494;-42
2022/06/24 14:46:19;;;;;;;2.25;0.60;;;;;;;;;;5030891;28;20037;-42
2022/06/24 14:48:45;;;;;;;0.95;0.55;;;;;;;;;;5033672;28;20140;-43
2022/06/24 14:51:10;;;;;;;0.82;0.35;;;;;;;;;;5031690;28;20110;-43
2022/06/24 14:53:36;;;;;;;2.17;0.70;;;;;;;;;;5033523;28;20469;-42
2022/06/24 14:56:02;;;;;;;2.75;0.50;;;;;;;;;;5021897;28;20045;-42
2022/06/24 14:58:28;;;;;;;0.30;0.30;;;;;;;;;;5016544;28;20442;-44